Time;durP1;ratioP1;P1;durP2;ratioP2;P2;SDS_P1;SDS_P2;PMS_P1;PMS_P2;Temp;Humidity;BMP_temperature;BMP_pressure;BME280_temperature;BME280_humidity;BME280_pressure;Samples;Min_cycle;Max_cycle;Signal;HPM_P1;HPM_P2
2022/05/04 00:00:09;;;;;;;10.30;1.73;;;;;;;;;;5029833;28;20075;-66
2022/05/04 00:02:35;;;;;;;11.90;1.17;;;;;;;;;;5030889;28;20037;-68
2022/05/04 00:05:01;;;;;;;12.77;1.40;;;;;;;;;;5030280;28;20041;-66
2022/05/04 00:07:27;;;;;;;9.52;1.10;;;;;;;;;;5029577;28;20037;-65
2022/05/04 00:09:55;;;;;;;8.35;1.20;;;;;;;;;;5029615;28;20094;-66
2022/05/04 00:12:22;;;;;;;7.97;1.20;;;;;;;;;;5054995;28;20041;-66
2022/05/04 00:14:48;;;;;;;9.95;1.60;;;;;;;;;;5055828;28;20099;-65
2022/05/04 00:17:15;;;;;;;12.27;1.30;;;;;;;;;;5037508;28;20037;-68
2022/05/04 00:19:43;;;;;;;9.65;1.52;;;;;;;;;;5028973;28;20483;-65
2022/05/04 00:22:09;;;;;;;8.23;1.35;;;;;;;;;;5030860;28;20096;-66
2022/05/04 00:24:35;;;;;;;7.90;1.20;;;;;;;;;;5029423;28;20045;-66
2022/05/04 00:27:01;;;;;;;10.35;2.00;;;;;;;;;;5029126;28;20636;-67
2022/05/04 00:29:27;;;;;;;8.55;0.95;;;;;;;;;;5028738;28;20064;-66
2022/05/04 00:31:53;;;;;;;8.05;1.10;;;;;;;;;;5028956;28;20044;-67
2022/05/04 00:34:19;;;;;;;10.27;1.20;;;;;;;;;;5028970;28;20048;-66
2022/05/04 00:36:45;;;;;;;12.40;2.03;;;;;;;;;;5030924;28;20111;-65
2022/05/04 00:39:11;;;;;;;8.55;1.30;;;;;;;;;;5011670;28;20048;-66
2022/05/04 00:41:37;;;;;;;14.35;1.35;;;;;;;;;;5029043;28;20056;-66
2022/05/04 00:44:05;;;;;;;8.95;0.98;;;;;;;;;;5030280;28;20053;-66
2022/05/04 00:46:31;;;;;;;8.13;1.48;;;;;;;;;;5028588;28;20040;-67
2022/05/04 00:48:57;;;;;;;11.70;1.20;;;;;;;;;;5030384;28;20531;-67
2022/05/04 00:51:24;;;;;;;7.97;0.90;;;;;;;;;;5029239;28;20045;-66
2022/05/04 00:53:50;;;;;;;9.18;1.33;;;;;;;;;;5028347;28;20131;-66
2022/05/04 00:56:16;;;;;;;9.32;1.10;;;;;;;;;;5029344;28;20207;-66
2022/05/04 00:58:55;;;;;;;9.85;1.10;;;;;;;;;;5029298;28;20048;-65
2022/05/04 01:01:22;;;;;;;11.02;1.08;;;;;;;;;;5036328;28;20091;-66
2022/05/04 01:03:48;;;;;;;8.18;0.77;;;;;;;;;;5027351;28;20114;-66
2022/05/04 01:06:14;;;;;;;9.77;1.10;;;;;;;;;;5056755;28;20119;-66
2022/05/04 01:08:41;;;;;;;9.63;1.00;;;;;;;;;;5012273;28;20403;-66
2022/05/04 01:11:07;;;;;;;8.75;1.38;;;;;;;;;;5028601;28;20041;-66
2022/05/04 01:13:36;;;;;;;12.23;1.00;;;;;;;;;;5026130;28;20049;-67
2022/05/04 01:16:03;;;;;;;13.57;1.20;;;;;;;;;;5030229;28;20696;-65
2022/05/04 01:18:30;;;;;;;8.88;1.40;;;;;;;;;;5028535;28;20645;-65
2022/05/04 01:20:56;;;;;;;8.75;0.77;;;;;;;;;;5033018;28;20511;-65
2022/05/04 01:23:22;;;;;;;12.27;1.25;;;;;;;;;;5028683;28;20041;-64
2022/05/04 01:25:53;;;;;;;9.18;1.15;;;;;;;;;;5055683;28;20125;-65
2022/05/04 01:28:19;;;;;;;11.85;0.93;;;;;;;;;;5047667;28;20056;-65
2022/05/04 01:30:45;;;;;;;7.80;1.08;;;;;;;;;;5028466;28;20140;-64
2022/05/04 01:33:12;;;;;;;6.20;0.93;;;;;;;;;;5028975;28;20037;-65
2022/05/04 01:35:38;;;;;;;9.07;0.80;;;;;;;;;;5041857;28;20080;-64
2022/05/04 01:38:05;;;;;;;7.93;0.80;;;;;;;;;;5029374;28;20040;-64
2022/05/04 01:40:31;;;;;;;7.38;0.70;;;;;;;;;;5027681;28;20080;-64
2022/05/04 01:42:57;;;;;;;8.80;1.00;;;;;;;;;;5029438;28;20045;-63
2022/05/04 01:45:23;;;;;;;9.57;0.80;;;;;;;;;;5031550;28;20476;-63
2022/05/04 01:47:50;;;;;;;8.10;1.05;;;;;;;;;;5030907;28;20142;-63
2022/05/04 01:50:17;;;;;;;5.28;0.50;;;;;;;;;;5029356;28;20440;-62
2022/05/04 01:52:43;;;;;;;8.13;1.02;;;;;;;;;;5029427;28;20175;-63
2022/05/04 01:55:10;;;;;;;6.05;0.70;;;;;;;;;;5029423;28;20466;-64
2022/05/04 01:57:37;;;;;;;6.22;0.75;;;;;;;;;;5030834;28;20064;-63
2022/05/04 02:00:04;;;;;;;7.90;1.10;;;;;;;;;;5029457;28;20087;-65
2022/05/04 02:02:30;;;;;;;8.60;1.10;;;;;;;;;;5027597;28;20045;-65
2022/05/04 02:04:59;;;;;;;9.90;1.25;;;;;;;;;;5010918;28;20053;-64
2022/05/04 02:07:25;;;;;;;11.25;0.90;;;;;;;;;;5027219;28;20066;-64
2022/05/04 02:09:51;;;;;;;11.90;1.00;;;;;;;;;;5028280;28;20037;-64
2022/05/04 02:12:19;;;;;;;9.38;1.23;;;;;;;;;;5028652;28;20038;-65
2022/05/04 02:14:45;;;;;;;10.18;1.38;;;;;;;;;;5010590;28;20135;-65
2022/05/04 02:17:11;;;;;;;11.02;1.20;;;;;;;;;;5026718;28;20109;-65
2022/05/04 02:19:37;;;;;;;8.93;1.50;;;;;;;;;;5028351;28;20045;-64
2022/05/04 02:22:03;;;;;;;9.73;1.30;;;;;;;;;;5028220;28;20122;-64
2022/05/04 02:24:29;;;;;;;9.15;1.00;;;;;;;;;;5048602;28;20041;-64
2022/05/04 02:26:55;;;;;;;11.23;1.17;;;;;;;;;;5026588;28;20037;-65
2022/05/04 02:29:21;;;;;;;8.77;1.05;;;;;;;;;;5027053;28;20045;-64
2022/05/04 02:31:47;;;;;;;14.23;1.95;;;;;;;;;;5027784;28;20136;-64
2022/05/04 02:34:13;;;;;;;10.32;1.13;;;;;;;;;;5027239;28;20041;-64
2022/05/04 02:39:24;;;;;;;9.45;1.35;;;;;;;;;;5027251;28;20087;-64
2022/05/04 02:41:52;;;;;;;7.65;0.90;;;;;;;;;;5028056;28;20064;-64
2022/05/04 02:44:18;;;;;;;8.25;1.05;;;;;;;;;;5027732;28;20049;-64
2022/05/04 02:46:44;;;;;;;10.65;1.30;;;;;;;;;;5026525;28;20450;-64
2022/05/04 02:49:10;;;;;;;10.57;1.60;;;;;;;;;;5010528;28;20084;-65
2022/05/04 02:51:36;;;;;;;9.80;1.17;;;;;;;;;;5058758;28;20449;-65
2022/05/04 02:54:03;;;;;;;7.18;1.10;;;;;;;;;;5056463;28;20084;-64
2022/05/04 02:56:29;;;;;;;10.23;1.27;;;;;;;;;;5053314;28;20443;-65
2022/05/04 02:58:55;;;;;;;10.65;1.30;;;;;;;;;;5027568;28;20104;-65
2022/05/04 03:04:07;;;;;;;11.20;1.23;;;;;;;;;;5028457;28;20041;-65
2022/05/04 03:06:36;;;;;;;9.60;1.10;;;;;;;;;;5028033;28;20423;-64
2022/05/04 03:09:03;;;;;;;14.02;1.85;;;;;;;;;;5026267;28;20120;-66
2022/05/04 03:14:14;;;;;;;10.60;1.23;;;;;;;;;;5027227;28;20064;-64
2022/05/04 03:16:40;;;;;;;11.05;1.60;;;;;;;;;;5009817;28;20112;-65
2022/05/04 03:19:07;;;;;;;8.90;1.10;;;;;;;;;;5027109;28;20187;-64
2022/05/04 03:21:33;;;;;;;8.98;1.52;;;;;;;;;;5026244;28;20076;-64
2022/05/04 03:23:59;;;;;;;12.05;1.50;;;;;;;;;;5027449;28;20127;-64
2022/05/04 03:26:25;;;;;;;9.15;1.40;;;;;;;;;;5026280;28;20053;-64
2022/05/04 03:28:52;;;;;;;10.27;1.15;;;;;;;;;;5026344;28;20076;-65
2022/05/04 03:31:18;;;;;;;9.88;1.50;;;;;;;;;;5051624;28;20123;-64
2022/05/04 03:33:44;;;;;;;11.20;1.83;;;;;;;;;;5025748;28;20075;-65
2022/05/04 03:36:13;;;;;;;10.40;1.45;;;;;;;;;;5026072;28;20392;-65
2022/05/04 03:38:39;;;;;;;13.20;1.63;;;;;;;;;;5025280;28;20053;-64
2022/05/04 03:41:07;;;;;;;11.20;1.23;;;;;;;;;;5050906;28;20041;-65
2022/05/04 03:43:33;;;;;;;12.23;1.40;;;;;;;;;;5025005;28;20030;-63
2022/05/04 03:46:18;;;;;;;8.35;1.20;;;;;;;;;;5026285;28;20037;-64
2022/05/04 03:48:45;;;;;;;9.45;1.27;;;;;;;;;;5030297;28;20080;-64
2022/05/04 03:51:13;;;;;;;9.00;1.33;;;;;;;;;;5026731;28;20080;-64
2022/05/04 03:53:40;;;;;;;10.05;1.70;;;;;;;;;;5024974;28;20096;-64
2022/05/04 03:56:07;;;;;;;10.32;1.40;;;;;;;;;;5050843;28;20046;-64
2022/05/04 03:58:37;;;;;;;10.30;1.45;;;;;;;;;;5025741;28;20045;-63
2022/05/04 04:01:03;;;;;;;11.48;1.25;;;;;;;;;;5027221;28;20037;-65
2022/05/04 04:03:29;;;;;;;9.43;1.77;;;;;;;;;;5017908;28;20049;-64
2022/05/04 04:05:55;;;;;;;9.48;1.33;;;;;;;;;;5029497;28;20056;-63
2022/05/04 04:08:21;;;;;;;12.50;2.53;;;;;;;;;;5029538;28;20200;-64
2022/05/04 04:10:47;;;;;;;13.38;2.33;;;;;;;;;;5029221;28;20132;-64
2022/05/04 04:13:15;;;;;;;12.02;2.25;;;;;;;;;;5028963;28;20407;-64
2022/05/04 04:15:42;;;;;;;9.93;1.92;;;;;;;;;;5037096;28;20041;-64
2022/05/04 04:18:08;;;;;;;13.13;1.77;;;;;;;;;;5028589;28;20050;-64
2022/05/04 04:23:19;;;;;;;8.07;1.38;;;;;;;;;;5030146;28;20038;-66
2022/05/04 04:25:45;;;;;;;9.20;1.17;;;;;;;;;;5012015;28;20044;-64
2022/05/04 04:28:11;;;;;;;10.02;1.25;;;;;;;;;;5028633;28;20041;-64
2022/05/04 04:30:38;;;;;;;11.50;1.77;;;;;;;;;;5028697;28;20132;-64
2022/05/04 04:33:08;;;;;;;12.93;1.40;;;;;;;;;;5028441;28;20103;-64
2022/05/04 04:35:34;;;;;;;7.10;1.63;;;;;;;;;;5030039;28;20034;-65
2022/05/04 04:38:01;;;;;;;11.20;1.30;;;;;;;;;;5028760;28;20191;-64
2022/05/04 04:40:27;;;;;;;8.88;1.40;;;;;;;;;;5028941;28;20121;-64
2022/05/04 04:42:53;;;;;;;10.00;1.67;;;;;;;;;;5029997;28;20037;-64
2022/05/04 04:45:20;;;;;;;9.90;1.85;;;;;;;;;;5029551;28;20115;-64
2022/05/04 04:47:46;;;;;;;8.20;1.40;;;;;;;;;;5028364;28;20045;-64
2022/05/04 04:50:12;;;;;;;10.73;1.65;;;;;;;;;;5052937;28;20140;-65
2022/05/04 04:52:38;;;;;;;9.35;1.58;;;;;;;;;;5011550;28;20057;-64
2022/05/04 04:55:05;;;;;;;8.63;1.55;;;;;;;;;;5029022;28;20582;-65
2022/05/04 04:57:33;;;;;;;11.02;1.90;;;;;;;;;;5042412;28;20103;-65
2022/05/04 04:59:59;;;;;;;9.77;1.35;;;;;;;;;;5027914;28;20064;-65
2022/05/04 05:02:25;;;;;;;8.73;1.48;;;;;;;;;;5028458;28;20068;-65
2022/05/04 05:04:51;;;;;;;8.68;1.45;;;;;;;;;;5029426;28;20052;-64
2022/05/04 05:07:18;;;;;;;11.45;1.50;;;;;;;;;;5012426;28;20041;-65
2022/05/04 05:09:47;;;;;;;9.15;0.85;;;;;;;;;;5029173;28;20129;-64
2022/05/04 05:12:13;;;;;;;9.77;1.90;;;;;;;;;;5028243;28;20041;-64
2022/05/04 05:17:24;;;;;;;11.80;1.35;;;;;;;;;;5028047;28;20068;-64
2022/05/04 05:19:50;;;;;;;10.63;1.40;;;;;;;;;;5028966;28;20060;-65
2022/05/04 05:22:17;;;;;;;11.30;1.40;;;;;;;;;;5027713;28;20048;-64
2022/05/04 05:24:43;;;;;;;10.75;1.95;;;;;;;;;;5028131;28;20507;-65
2022/05/04 05:27:09;;;;;;;11.80;1.25;;;;;;;;;;5028741;28;20095;-66
2022/05/04 05:29:38;;;;;;;10.43;1.58;;;;;;;;;;5030091;28;20037;-65
2022/05/04 05:32:04;;;;;;;8.85;1.42;;;;;;;;;;5029146;28;20091;-65
2022/05/04 05:34:33;;;;;;;10.23;1.60;;;;;;;;;;5032398;28;20105;-64
2022/05/04 05:36:59;;;;;;;8.32;1.83;;;;;;;;;;5028928;28;20064;-64
2022/05/04 05:39:25;;;;;;;9.52;1.55;;;;;;;;;;5030352;28;20537;-65
2022/05/04 05:41:52;;;;;;;9.88;1.50;;;;;;;;;;5063649;28;20095;-63
2022/05/04 05:44:18;;;;;;;12.88;1.67;;;;;;;;;;5031297;28;20037;-63
2022/05/04 05:46:44;;;;;;;9.55;1.33;;;;;;;;;;5028976;28;20041;-63
2022/05/04 05:49:10;;;;;;;8.38;1.33;;;;;;;;;;5058325;28;20099;-64
2022/05/04 05:51:39;;;;;;;9.98;1.45;;;;;;;;;;5030298;28;20083;-63
2022/05/04 05:54:05;;;;;;;10.23;1.60;;;;;;;;;;5029498;28;20391;-63
2022/05/04 05:56:31;;;;;;;8.70;1.20;;;;;;;;;;5029794;28;20044;-62
2022/05/04 05:58:57;;;;;;;8.82;1.35;;;;;;;;;;5028560;28;20033;-64
2022/05/04 06:01:23;;;;;;;10.93;1.35;;;;;;;;;;5028287;28;20121;-63
2022/05/04 06:03:50;;;;;;;8.57;1.73;;;;;;;;;;5036214;28;20103;-63
2022/05/04 06:06:17;;;;;;;8.93;1.42;;;;;;;;;;5029010;28;20037;-63
2022/05/04 06:08:43;;;;;;;11.27;1.60;;;;;;;;;;5012082;28;20067;-62
2022/05/04 06:11:09;;;;;;;6.68;1.65;;;;;;;;;;5012644;28;20126;-64
2022/05/04 06:13:35;;;;;;;10.93;1.77;;;;;;;;;;5041426;28;20034;-64
2022/05/04 06:16:01;;;;;;;9.40;2.00;;;;;;;;;;5030367;28;20051;-64
2022/05/04 06:18:27;;;;;;;10.15;1.45;;;;;;;;;;5029968;28;20033;-63
2022/05/04 06:20:53;;;;;;;8.80;1.65;;;;;;;;;;5030055;28;20041;-63
2022/05/04 06:23:19;;;;;;;9.65;1.42;;;;;;;;;;5012987;28;20037;-64
2022/05/04 06:25:45;;;;;;;10.77;1.70;;;;;;;;;;5055157;28;20251;-64
2022/05/04 06:28:12;;;;;;;10.95;1.85;;;;;;;;;;5056801;28;20510;-62
2022/05/04 06:36:08;;;;;;;7.47;1.85;;;;;;;;;;5030371;28;20128;-64
2022/05/04 06:38:34;;;;;;;10.40;1.50;;;;;;;;;;5028107;28;20041;-64
2022/05/04 06:41:00;;;;;;;6.78;1.35;;;;;;;;;;5030132;28;20037;-63
2022/05/04 06:43:27;;;;;;;7.78;1.00;;;;;;;;;;5044255;28;21699;-63
2022/05/04 06:45:53;;;;;;;9.02;1.50;;;;;;;;;;5011971;28;20037;-63
2022/05/04 06:48:19;;;;;;;7.07;1.20;;;;;;;;;;5042884;28;20049;-63
2022/05/04 06:50:45;;;;;;;11.75;1.98;;;;;;;;;;5029225;28;20124;-63
2022/05/04 06:53:12;;;;;;;8.85;1.08;;;;;;;;;;5029430;28;20057;-63
2022/05/04 06:55:38;;;;;;;12.20;1.23;;;;;;;;;;5029633;28;20514;-63
2022/05/04 06:58:05;;;;;;;7.05;1.13;;;;;;;;;;5027629;28;20048;-63
2022/05/04 07:00:31;;;;;;;7.97;1.23;;;;;;;;;;5029573;28;20035;-64
2022/05/04 07:02:57;;;;;;;9.88;1.38;;;;;;;;;;5027148;28;20041;-66
2022/05/04 07:05:23;;;;;;;7.03;1.10;;;;;;;;;;5026294;28;20033;-66
2022/05/04 07:07:49;;;;;;;11.77;1.20;;;;;;;;;;5032745;28;20045;-66
2022/05/04 07:10:15;;;;;;;7.45;1.40;;;;;;;;;;5010935;28;20033;-65
2022/05/04 07:12:41;;;;;;;8.85;0.82;;;;;;;;;;5026795;28;20041;-65
2022/05/04 07:15:07;;;;;;;10.18;1.23;;;;;;;;;;5028091;28;20147;-66
2022/05/04 07:17:33;;;;;;;10.95;1.55;;;;;;;;;;5026858;28;20033;-66
2022/05/04 07:19:59;;;;;;;9.65;1.20;;;;;;;;;;5009817;28;20041;-66
2022/05/04 07:22:25;;;;;;;13.82;1.38;;;;;;;;;;5027030;28;20120;-66
2022/05/04 07:24:52;;;;;;;8.63;1.20;;;;;;;;;;5028343;28;20048;-67
2022/05/04 07:27:18;;;;;;;7.07;0.75;;;;;;;;;;5026777;28;20087;-65
2022/05/04 07:29:46;;;;;;;7.20;1.00;;;;;;;;;;5026266;28;20399;-65
2022/05/04 07:32:12;;;;;;;8.13;0.85;;;;;;;;;;5027525;28;20080;-65
2022/05/04 07:34:38;;;;;;;7.32;1.00;;;;;;;;;;5026371;28;20092;-66
2022/05/04 07:37:05;;;;;;;8.02;1.10;;;;;;;;;;5028429;28;20049;-66
2022/05/04 07:42:24;;;;;;;4.53;0.70;;;;;;;;;;5052720;28;20041;-66
2022/05/04 07:44:51;;;;;;;5.00;1.00;;;;;;;;;;5030300;28;20487;-66
2022/05/04 07:47:17;;;;;;;7.55;1.00;;;;;;;;;;5056523;28;20041;-67
2022/05/04 07:49:43;;;;;;;8.13;1.40;;;;;;;;;;5030878;28;20042;-66
2022/05/04 07:52:09;;;;;;;7.63;1.13;;;;;;;;;;5030182;28;20045;-66
2022/05/04 07:54:35;;;;;;;7.55;1.20;;;;;;;;;;5013515;28;20057;-66
2022/05/04 07:57:01;;;;;;;11.85;1.13;;;;;;;;;;5031736;28;20041;-66
2022/05/04 07:59:28;;;;;;;8.40;1.20;;;;;;;;;;5029580;28;20037;-65
2022/05/04 08:04:38;;;;;;;6.30;1.10;;;;;;;;;;5015743;28;20125;-67
2022/05/04 08:07:04;;;;;;;5.55;1.05;;;;;;;;;;5058929;28;20037;-66
2022/05/04 08:09:36;;;;;;;9.18;1.02;;;;;;;;;;5027468;28;20068;-66
2022/05/04 08:12:08;;;;;;;8.75;1.00;;;;;;;;;;5030276;28;20049;-65
2022/05/04 08:14:35;;;;;;;5.60;0.73;;;;;;;;;;5031514;28;20106;-65
2022/05/04 08:17:01;;;;;;;7.80;0.80;;;;;;;;;;5031475;28;20057;-66
2022/05/04 08:19:27;;;;;;;7.03;0.90;;;;;;;;;;5013256;28;20551;-65
2022/05/04 08:21:54;;;;;;;8.23;1.23;;;;;;;;;;5029503;28;20543;-66
2022/05/04 08:24:21;;;;;;;9.75;1.23;;;;;;;;;;5010896;28;20045;-67
2022/05/04 08:26:47;;;;;;;7.93;1.00;;;;;;;;;;5029963;28;20061;-66
2022/05/04 08:29:14;;;;;;;5.88;0.82;;;;;;;;;;5028704;28;20053;-66
2022/05/04 08:31:40;;;;;;;6.55;0.70;;;;;;;;;;5012836;28;20048;-66
2022/05/04 08:34:06;;;;;;;7.38;1.05;;;;;;;;;;5029101;28;20119;-67
2022/05/04 08:36:32;;;;;;;10.98;0.90;;;;;;;;;;5012654;28;20071;-66
2022/05/04 08:38:58;;;;;;;7.75;0.80;;;;;;;;;;5028266;28;20033;-65
2022/05/04 08:41:26;;;;;;;6.75;1.00;;;;;;;;;;5050453;28;20045;-67
2022/05/04 08:43:53;;;;;;;9.23;1.40;;;;;;;;;;5028008;28;20033;-66
2022/05/04 08:46:22;;;;;;;8.25;1.05;;;;;;;;;;5054004;28;20041;-66
2022/05/04 08:48:48;;;;;;;5.82;0.90;;;;;;;;;;5027601;28;20053;-66
2022/05/04 08:51:16;;;;;;;7.75;1.15;;;;;;;;;;5028179;28;20055;-65
2022/05/04 08:53:44;;;;;;;7.88;0.93;;;;;;;;;;5052209;28;20092;-65
2022/05/04 08:56:12;;;;;;;8.80;0.75;;;;;;;;;;5028015;28;20754;-66
2022/05/04 08:58:38;;;;;;;7.18;0.70;;;;;;;;;;5009990;28;20045;-67
2022/05/04 09:01:04;;;;;;;7.25;0.85;;;;;;;;;;5026714;28;20041;-66
2022/05/04 09:03:32;;;;;;;7.28;0.93;;;;;;;;;;5030395;28;20073;-66
2022/05/04 09:05:59;;;;;;;6.93;1.17;;;;;;;;;;5034718;28;20255;-67
2022/05/04 09:08:25;;;;;;;7.38;1.10;;;;;;;;;;5027109;28;20427;-66
2022/05/04 09:10:51;;;;;;;7.40;0.70;;;;;;;;;;5027769;28;20395;-65
2022/05/04 09:13:20;;;;;;;5.63;0.90;;;;;;;;;;5029188;28;20069;-65
2022/05/04 09:15:46;;;;;;;8.07;1.33;;;;;;;;;;5054573;28;20048;-67
2022/05/04 09:18:16;;;;;;;7.80;0.90;;;;;;;;;;5031031;28;20518;-66
2022/05/04 09:20:49;;;;;;;6.80;1.10;;;;;;;;;;5035452;28;20040;-66
2022/05/04 09:23:21;;;;;;;6.00;0.82;;;;;;;;;;5026746;28;20406;-66
2022/05/04 09:25:48;;;;;;;6.13;0.90;;;;;;;;;;5029182;28;20339;-66
2022/05/04 09:28:15;;;;;;;6.68;1.05;;;;;;;;;;5042808;28;20041;-65
2022/05/04 09:30:48;;;;;;;7.38;0.90;;;;;;;;;;5029876;28;20467;-66
2022/05/04 09:33:19;;;;;;;6.05;1.02;;;;;;;;;;5044539;28;20052;-64
2022/05/04 09:35:45;;;;;;;7.97;1.05;;;;;;;;;;5029598;28;20037;-64
2022/05/04 09:46:43;;;;;;;6.38;0.80;;;;;;;;;;5052349;28;20076;-64
2022/05/04 09:49:10;;;;;;;7.05;0.88;;;;;;;;;;5027746;28;20072;-66
2022/05/04 09:51:37;;;;;;;12.27;1.17;;;;;;;;;;5026293;28;20054;-66
2022/05/04 09:54:33;;;;;;;8.20;0.90;;;;;;;;;;5027201;28;20053;-66
2022/05/04 09:57:03;;;;;;;8.15;1.10;;;;;;;;;;5013880;28;20124;-66
2022/05/04 09:59:33;;;;;;;7.70;1.10;;;;;;;;;;5027100;28;20049;-66
2022/05/04 10:02:00;;;;;;;9.80;1.10;;;;;;;;;;5027029;28;20038;-66
2022/05/04 10:04:27;;;;;;;9.63;1.15;;;;;;;;;;5054532;28;20037;-67
2022/05/04 10:06:53;;;;;;;7.22;0.82;;;;;;;;;;5052935;28;20096;-66
2022/05/04 10:09:20;;;;;;;7.72;1.00;;;;;;;;;;5039108;28;20053;-66
2022/05/04 10:11:47;;;;;;;6.38;0.95;;;;;;;;;;5028193;28;20038;-66
2022/05/04 10:14:17;;;;;;;6.38;0.82;;;;;;;;;;5027152;28;20041;-66
2022/05/04 10:17:11;;;;;;;5.22;0.60;;;;;;;;;;5033721;28;20539;-66
2022/05/04 10:19:46;;;;;;;7.30;0.77;;;;;;;;;;5022309;28;20622;-66
2022/05/04 10:22:14;;;;;;;9.82;1.27;;;;;;;;;;5025483;28;20033;-67
2022/05/04 10:24:42;;;;;;;6.30;0.70;;;;;;;;;;5038273;28;20104;-66
2022/05/04 10:27:19;;;;;;;5.47;0.93;;;;;;;;;;5048861;28;20494;-67
2022/05/04 10:32:36;;;;;;;5.32;0.70;;;;;;;;;;5027197;28;20107;-67
2022/05/04 10:35:14;;;;;;;10.10;1.70;;;;;;;;;;5028346;28;20033;-66
2022/05/04 10:37:58;;;;;;;7.28;0.90;;;;;;;;;;5026903;28;20046;-66
2022/05/04 10:40:24;;;;;;;7.93;0.80;;;;;;;;;;5027106;28;20427;-67
2022/05/04 10:43:09;;;;;;;6.03;0.70;;;;;;;;;;5027208;28;20033;-67
2022/05/04 10:45:36;;;;;;;5.53;0.52;;;;;;;;;;5026616;28;20094;-67
2022/05/04 10:48:16;;;;;;;4.97;0.82;;;;;;;;;;5026752;28;20046;-67
2022/05/04 10:50:49;;;;;;;7.60;1.30;;;;;;;;;;5024416;28;20079;-66
2022/05/04 10:53:41;;;;;;;7.97;1.80;;;;;;;;;;5010350;28;20053;-66
2022/05/04 10:56:12;;;;;;;8.95;1.98;;;;;;;;;;5012190;28;20045;-67
2022/05/04 10:58:46;;;;;;;10.82;1.00;;;;;;;;;;5026481;28;20516;-66
2022/05/04 11:01:13;;;;;;;9.52;1.13;;;;;;;;;;5028193;28;20037;-66
2022/05/04 11:03:58;;;;;;;11.60;0.70;;;;;;;;;;5028038;28;20045;-67
2022/05/04 11:06:29;;;;;;;6.68;0.80;;;;;;;;;;5029321;28;20073;-62
2022/05/04 11:09:00;;;;;;;10.55;1.27;;;;;;;;;;5028923;28;20045;-64
2022/05/04 11:11:27;;;;;;;7.25;0.77;;;;;;;;;;5029126;28;20446;-64
2022/05/04 11:13:54;;;;;;;9.57;1.00;;;;;;;;;;5028475;28;20042;-65
2022/05/04 11:16:21;;;;;;;8.48;0.80;;;;;;;;;;5047402;28;20068;-64
2022/05/04 11:18:47;;;;;;;5.35;0.65;;;;;;;;;;5033355;28;20033;-64
2022/05/04 11:21:14;;;;;;;5.93;0.60;;;;;;;;;;5032844;28;20041;-64
2022/05/04 11:23:40;;;;;;;11.55;0.93;;;;;;;;;;5045749;28;20052;-64
2022/05/04 11:26:06;;;;;;;7.88;0.82;;;;;;;;;;5031721;28;20120;-63
2022/05/04 11:28:35;;;;;;;4.25;0.52;;;;;;;;;;5031029;28;20256;-64
2022/05/04 11:31:01;;;;;;;6.43;0.82;;;;;;;;;;5031505;28;20037;-64
2022/05/04 11:33:27;;;;;;;4.63;0.77;;;;;;;;;;5032656;28;20044;-64
2022/05/04 11:35:54;;;;;;;3.05;0.60;;;;;;;;;;5031485;28;20037;-65
2022/05/04 11:38:21;;;;;;;5.15;0.65;;;;;;;;;;5033023;28;20120;-63
2022/05/04 11:40:48;;;;;;;5.38;0.82;;;;;;;;;;5032599;28;20439;-64
2022/05/04 11:43:34;;;;;;;8.55;0.88;;;;;;;;;;5030865;28;20310;-64
2022/05/04 11:46:06;;;;;;;6.97;0.52;;;;;;;;;;5033022;28;20118;-64
2022/05/04 11:48:33;;;;;;;7.10;0.60;;;;;;;;;;5032830;28;20041;-64
2022/05/04 11:50:59;;;;;;;3.58;0.85;;;;;;;;;;5030845;28;20033;-64
2022/05/04 11:53:26;;;;;;;6.80;0.80;;;;;;;;;;5030980;28;20462;-64
2022/05/04 11:55:52;;;;;;;5.90;0.98;;;;;;;;;;5031986;28;20057;-65
2022/05/04 11:58:18;;;;;;;5.90;0.90;;;;;;;;;;5030819;28;20280;-65
2022/05/04 12:00:44;;;;;;;5.40;0.50;;;;;;;;;;5031436;28;20411;-63
2022/05/04 12:03:11;;;;;;;7.10;0.82;;;;;;;;;;5031832;28;20122;-64
2022/05/04 12:05:39;;;;;;;4.78;0.60;;;;;;;;;;5031265;28;20577;-63
2022/05/04 12:08:06;;;;;;;7.45;0.80;;;;;;;;;;5030362;28;20049;-64
2022/05/04 12:10:33;;;;;;;7.63;0.90;;;;;;;;;;5063535;28;20397;-64
2022/05/04 12:13:00;;;;;;;4.60;0.40;;;;;;;;;;5032929;28;20056;-64
2022/05/04 12:15:30;;;;;;;4.72;0.50;;;;;;;;;;5032711;28;20558;-64
2022/05/04 12:18:00;;;;;;;7.70;0.80;;;;;;;;;;5046095;28;20041;-65
2022/05/04 12:20:26;;;;;;;6.15;0.70;;;;;;;;;;5031007;28;20033;-66
2022/05/04 12:22:53;;;;;;;4.57;0.70;;;;;;;;;;5031466;28;20072;-65
2022/05/04 12:25:20;;;;;;;4.85;0.60;;;;;;;;;;5014826;28;20053;-64
2022/05/04 12:27:47;;;;;;;5.35;0.68;;;;;;;;;;5031003;28;20041;-64
2022/05/04 12:33:10;;;;;;;3.85;0.70;;;;;;;;;;5031876;28;20037;-65
2022/05/04 12:35:37;;;;;;;5.10;0.60;;;;;;;;;;5028337;28;20049;-64
2022/05/04 12:38:03;;;;;;;6.07;0.50;;;;;;;;;;5032224;28;20559;-65
2022/05/04 12:40:31;;;;;;;4.25;0.75;;;;;;;;;;5030881;28;20116;-64
2022/05/04 12:42:59;;;;;;;6.40;0.50;;;;;;;;;;5031838;28;20049;-65
2022/05/04 12:45:25;;;;;;;5.68;0.70;;;;;;;;;;5031707;28;20033;-64
2022/05/04 12:47:51;;;;;;;8.10;0.80;;;;;;;;;;5044555;28;20037;-64
2022/05/04 12:50:19;;;;;;;6.50;0.73;;;;;;;;;;5060357;28;20037;-65
2022/05/04 12:52:46;;;;;;;4.78;0.70;;;;;;;;;;5027089;28;20061;-66
2022/05/04 12:55:12;;;;;;;7.90;0.60;;;;;;;;;;5012327;28;20050;-66
2022/05/04 12:57:39;;;;;;;6.95;0.75;;;;;;;;;;5011859;28;20044;-66
2022/05/04 13:00:05;;;;;;;5.00;0.40;;;;;;;;;;5030065;28;20411;-66
2022/05/04 13:02:32;;;;;;;7.80;0.55;;;;;;;;;;5053195;28;20041;-66
2022/05/04 13:04:58;;;;;;;3.47;0.50;;;;;;;;;;5044253;28;20094;-66
2022/05/04 13:07:24;;;;;;;7.15;0.80;;;;;;;;;;5037698;28;20041;-65
2022/05/04 13:09:50;;;;;;;4.63;0.57;;;;;;;;;;5012315;28;20410;-67
2022/05/04 13:12:17;;;;;;;6.60;0.75;;;;;;;;;;5030848;28;20041;-64
2022/05/04 13:14:43;;;;;;;5.63;0.50;;;;;;;;;;5031179;28;20037;-63
2022/05/04 13:17:09;;;;;;;4.78;0.60;;;;;;;;;;5031191;28;20046;-64
2022/05/04 13:19:36;;;;;;;4.82;0.47;;;;;;;;;;5029767;28;20045;-65
2022/05/04 13:22:02;;;;;;;3.88;0.57;;;;;;;;;;5015434;28;20034;-65
2022/05/04 13:24:28;;;;;;;6.15;0.47;;;;;;;;;;5029854;28;20037;-64
2022/05/04 13:26:54;;;;;;;6.95;0.60;;;;;;;;;;5029801;28;20041;-63
2022/05/04 13:29:20;;;;;;;5.00;0.73;;;;;;;;;;5029397;28;20049;-65
2022/05/04 13:31:46;;;;;;;3.50;0.52;;;;;;;;;;5029142;28;20120;-64
2022/05/04 13:34:12;;;;;;;4.45;0.80;;;;;;;;;;4996519;28;20037;-64
2022/05/04 13:36:38;;;;;;;4.85;0.40;;;;;;;;;;5012536;28;20407;-64
2022/05/04 13:39:04;;;;;;;5.07;0.68;;;;;;;;;;5045053;28;20539;-64
2022/05/04 13:41:30;;;;;;;4.45;0.50;;;;;;;;;;5044080;28;20041;-67
2022/05/04 13:43:59;;;;;;;6.47;0.52;;;;;;;;;;5027735;28;20075;-67
2022/05/04 13:46:25;;;;;;;4.93;0.70;;;;;;;;;;5028200;28;20091;-66
2022/05/04 13:48:51;;;;;;;4.57;0.40;;;;;;;;;;5028585;28;20451;-67
2022/05/04 13:54:03;;;;;;;4.65;0.50;;;;;;;;;;5028568;28;20129;-68
2022/05/04 13:56:29;;;;;;;5.07;0.52;;;;;;;;;;5016694;28;20148;-67
2022/05/04 13:58:55;;;;;;;4.80;0.50;;;;;;;;;;5010755;28;20748;-67
2022/05/04 14:01:21;;;;;;;6.47;0.70;;;;;;;;;;5041116;28;20047;-69
2022/05/04 14:03:49;;;;;;;4.00;0.57;;;;;;;;;;5027466;28;20132;-68
2022/05/04 14:06:15;;;;;;;7.28;0.60;;;;;;;;;;5028838;28;20088;-67
2022/05/04 14:08:42;;;;;;;5.05;0.73;;;;;;;;;;5028922;28;20132;-69
2022/05/04 14:11:08;;;;;;;5.82;0.50;;;;;;;;;;5011187;28;20037;-67
2022/05/04 14:13:34;;;;;;;4.63;0.50;;;;;;;;;;5050252;28;20049;-68
2022/05/04 14:16:00;;;;;;;5.50;0.90;;;;;;;;;;5012148;28;20406;-68
2022/05/04 14:18:28;;;;;;;6.28;0.90;;;;;;;;;;5053439;28;20037;-67
2022/05/04 14:20:56;;;;;;;5.00;0.88;;;;;;;;;;5009163;28;20064;-68
2022/05/04 14:23:22;;;;;;;5.60;0.82;;;;;;;;;;5027947;28;20033;-67
2022/05/04 14:25:48;;;;;;;6.97;0.73;;;;;;;;;;5026094;28;20069;-68
2022/05/04 14:28:14;;;;;;;7.15;0.93;;;;;;;;;;5023765;28;20041;-68
2022/05/04 14:30:40;;;;;;;4.38;0.50;;;;;;;;;;5028920;28;20120;-67
2022/05/04 14:33:07;;;;;;;7.20;0.93;;;;;;;;;;5053439;28;20045;-68
2022/05/04 14:35:33;;;;;;;4.18;0.50;;;;;;;;;;5021400;28;20044;-67
2022/05/04 14:38:00;;;;;;;5.88;1.00;;;;;;;;;;5051739;28;20042;-67
2022/05/04 14:40:26;;;;;;;5.50;0.50;;;;;;;;;;5028094;28;20463;-68
2022/05/04 14:42:54;;;;;;;5.25;0.60;;;;;;;;;;5052064;28;20546;-67
2022/05/04 14:45:20;;;;;;;3.63;0.47;;;;;;;;;;5019878;28;20037;-67
2022/05/04 14:47:46;;;;;;;4.82;0.73;;;;;;;;;;5027093;28;20041;-68
2022/05/04 14:50:12;;;;;;;4.43;0.60;;;;;;;;;;5054286;28;20488;-67
2022/05/04 14:52:38;;;;;;;5.90;0.50;;;;;;;;;;5027983;28;20033;-66
2022/05/04 14:55:04;;;;;;;3.45;0.50;;;;;;;;;;5029856;28;20120;-67
2022/05/04 14:57:30;;;;;;;5.43;0.73;;;;;;;;;;5049252;28;20034;-66
2022/05/04 14:59:57;;;;;;;5.20;0.80;;;;;;;;;;5020608;28;20072;-68
2022/05/04 15:02:23;;;;;;;5.75;0.57;;;;;;;;;;5040111;28;20115;-67
2022/05/04 15:05:05;;;;;;;6.88;0.60;;;;;;;;;;5010793;28;20059;-66
2022/05/04 15:07:32;;;;;;;4.18;0.60;;;;;;;;;;5027021;28;20163;-65
2022/05/04 15:10:02;;;;;;;4.68;0.60;;;;;;;;;;5049638;28;20615;-66
2022/05/04 15:12:28;;;;;;;7.15;0.80;;;;;;;;;;5027824;28;20548;-66
2022/05/04 15:14:54;;;;;;;5.82;0.77;;;;;;;;;;5028658;28;20064;-67
2022/05/04 15:17:20;;;;;;;5.00;0.70;;;;;;;;;;5026015;28;20041;-67
2022/05/04 15:19:46;;;;;;;6.47;0.70;;;;;;;;;;5027983;28;20037;-66
2022/05/04 15:22:12;;;;;;;4.30;0.50;;;;;;;;;;5028324;28;20030;-66